createdAt,value
2022-08-11T00:00:06.481Z,16.90
2022-08-11T00:02:15.122Z,16.90
2022-08-11T00:06:30.771Z,16.70
2022-08-11T00:08:36.336Z,16.40
2022-08-11T00:10:41.845Z,16.30
2022-08-11T00:12:51.914Z,16.00
2022-08-11T00:15:01.051Z,15.80
2022-08-11T00:17:07.821Z,15.60
2022-08-11T00:19:12.228Z,15.70
2022-08-11T00:23:21.716Z,15.80
2022-08-11T00:25:27.855Z,15.60
2022-08-11T00:27:47.302Z,15.70
2022-08-11T00:29:55.884Z,15.80
2022-08-11T00:32:02.596Z,15.90
2022-08-11T00:34:13.699Z,16.00
2022-08-11T00:36:25.374Z,15.90
2022-08-11T00:38:37.107Z,15.80
2022-08-11T00:40:46.317Z,15.70
2022-08-11T00:43:01.861Z,15.70
2022-08-11T00:45:15.833Z,15.80
2022-08-11T00:47:28.971Z,16.00
2022-08-11T00:49:46.987Z,16.00
2022-08-11T00:52:09.572Z,15.90
2022-08-11T00:54:34.758Z,15.90
2022-08-11T00:57:37.355Z,15.90
2022-08-11T01:00:05.206Z,15.90
2022-08-11T01:02:30.709Z,16.10
2022-08-11T01:05:28.908Z,16.10
2022-08-11T01:10:31.947Z,15.70
2022-08-11T01:12:51.645Z,15.70
2022-08-11T01:15:29.470Z,15.50
2022-08-11T01:20:47.307Z,15.60
2022-08-11T01:23:13.379Z,15.70
2022-08-11T01:25:57.489Z,15.70
2022-08-11T01:28:49.682Z,15.70
2022-08-11T01:31:27.070Z,15.80
2022-08-11T01:34:13.928Z,15.80
2022-08-11T01:36:53.613Z,15.70
2022-08-11T01:39:30.681Z,15.60
2022-08-11T01:42:18.699Z,15.50
2022-08-11T01:44:55.156Z,15.30
2022-08-11T01:47:31.797Z,15.20
2022-08-11T01:50:08.780Z,15.10
2022-08-11T01:52:19.250Z,15.10
2022-08-11T01:57:15.038Z,15.00
2022-08-11T01:59:22.685Z,14.90
2022-08-11T02:03:44.812Z,14.80
2022-08-11T02:06:01.358Z,14.60
2022-08-11T02:08:18.302Z,14.50
2022-08-11T02:10:50.367Z,14.40
2022-08-11T02:13:02.103Z,14.50
2022-08-11T02:15:16.023Z,14.50
2022-08-11T02:17:22.960Z,14.50
2022-08-11T02:19:58.121Z,14.50
2022-08-11T02:22:27.128Z,14.50
2022-08-11T02:24:41.434Z,14.80
2022-08-11T02:26:50.755Z,14.70
2022-08-11T02:29:05.512Z,14.80
2022-08-11T02:32:15.579Z,14.80
2022-08-11T02:36:11.322Z,14.90
2022-08-11T02:38:26.377Z,14.80
2022-08-11T02:40:39.864Z,14.70
2022-08-11T02:42:55.299Z,14.50
2022-08-11T02:45:17.674Z,14.40
2022-08-11T02:47:39.383Z,14.30
2022-08-11T02:50:02.565Z,14.20
2022-08-11T02:52:21.713Z,14.00
2022-08-11T02:54:31.086Z,13.90
2022-08-11T02:56:52.349Z,13.90
2022-08-11T02:59:22.091Z,13.80
2022-08-11T03:01:32.377Z,13.80
2022-08-11T03:03:46.207Z,14.00
2022-08-11T03:06:09.808Z,13.90
2022-08-11T03:08:22.337Z,13.80
2022-08-11T03:10:32.933Z,13.70
2022-08-11T03:13:12.169Z,13.60
2022-08-11T03:15:42.758Z,13.60
2022-08-11T03:18:08.698Z,13.50
2022-08-11T03:20:39.293Z,13.50
2022-08-11T03:22:56.301Z,13.50
2022-08-11T03:25:08.747Z,13.50
2022-08-11T03:27:30.488Z,13.50
2022-08-11T03:29:41.412Z,13.40
2022-08-11T03:31:51.296Z,13.30
2022-08-11T03:34:08.458Z,13.20
2022-08-11T03:36:29.491Z,13.10
2022-08-11T03:38:57.658Z,13.20
2022-08-11T03:42:03.830Z,13.10
2022-08-11T03:44:21.829Z,12.90
2022-08-11T03:46:39.791Z,13.00
2022-08-11T03:48:51.662Z,12.90
2022-08-11T03:51:08.664Z,12.90
2022-08-11T03:53:19.626Z,12.90
2022-08-11T03:55:44.097Z,12.90
2022-08-11T03:58:38.125Z,12.90
2022-08-11T04:03:47.280Z,12.90
2022-08-11T04:06:26.072Z,12.90
2022-08-11T04:09:12.109Z,13.00
2022-08-11T04:11:57.827Z,12.90
2022-08-11T04:15:01.531Z,12.90
2022-08-11T04:17:38.467Z,12.90
2022-08-11T04:22:33.016Z,12.90
2022-08-11T04:25:08.558Z,12.90
2022-08-11T04:27:54.010Z,12.80
2022-08-11T04:37:30.550Z,13.10
2022-08-11T04:39:57.481Z,13.10
2022-08-11T04:42:35.445Z,13.20
2022-08-11T04:45:21.649Z,13.30
2022-08-11T04:48:04.658Z,13.20
2022-08-11T04:51:03.985Z,13.10
2022-08-11T04:53:52.552Z,13.20
2022-08-11T04:56:27.873Z,13.50
2022-08-11T04:59:09.637Z,13.50
2022-08-11T05:01:44.508Z,13.60
2022-08-11T05:05:00.363Z,13.70
2022-08-11T05:07:42.295Z,13.80
2022-08-11T05:10:08.366Z,14.00
2022-08-11T05:12:31.475Z,14.20
2022-08-11T05:14:57.261Z,14.40
2022-08-11T05:17:30.332Z,14.60
2022-08-11T05:19:51.354Z,14.80
2022-08-11T05:22:17.461Z,14.90
2022-08-11T05:24:42.811Z,15.10
2022-08-11T05:27:13.396Z,15.20
2022-08-11T05:30:00.310Z,15.40
2022-08-11T05:32:21.505Z,15.50
2022-08-11T05:34:48.283Z,15.60
2022-08-11T05:37:17.279Z,15.80
2022-08-11T05:39:43.125Z,16.00
2022-08-11T05:42:07.539Z,16.30
2022-08-11T05:44:44.141Z,16.50
2022-08-11T05:47:10.453Z,16.60
2022-08-11T05:54:29.626Z,17.80
2022-08-11T05:56:37.176Z,17.80
2022-08-11T05:58:43.283Z,18.00
2022-08-11T06:05:01.607Z,18.70
2022-08-11T06:24:19.685Z,21.20
2022-08-11T06:26:23.269Z,21.20
2022-08-11T06:32:47.882Z,22.10
2022-08-11T06:35:07.552Z,22.40
2022-08-11T06:37:22.242Z,22.70
2022-08-11T06:41:46.987Z,23.20
2022-08-11T06:43:56.439Z,24.00
2022-08-11T06:48:11.365Z,24.90
2022-08-11T06:50:44.975Z,25.10
2022-08-11T06:52:49.763Z,25.80
2022-08-11T06:55:04.398Z,26.60
2022-08-11T06:57:30.529Z,27.40
2022-08-11T06:59:53.360Z,27.40
2022-08-11T07:02:09.595Z,27.30
2022-08-11T07:04:14.872Z,27.70
2022-08-11T07:06:41.737Z,28.10
2022-08-11T07:12:19.976Z,27.40
2022-08-11T07:14:44.559Z,27.90
2022-08-11T07:16:51.328Z,28.50
2022-08-11T07:19:24.185Z,29.00
2022-08-11T07:22:02.290Z,28.90
2022-08-11T07:24:58.567Z,29.40
2022-08-11T07:27:16.082Z,30.10
2022-08-11T07:29:21.500Z,30.40
2022-08-11T07:31:33.073Z,31.90
2022-08-11T07:34:08.310Z,31.80
2022-08-11T07:36:12.939Z,32.50
2022-08-11T07:38:25.382Z,31.70
2022-08-11T07:40:30.665Z,32.20
2022-08-11T07:42:37.059Z,31.90
2022-08-11T07:44:56.696Z,31.90
2022-08-11T07:47:19.312Z,31.40
2022-08-11T07:49:41.021Z,31.50
2022-08-11T07:54:16.849Z,32.90
2022-08-11T07:56:45.596Z,32.90
2022-08-11T07:59:08.271Z,33.20
2022-08-11T08:01:30.972Z,32.80
2022-08-11T08:03:54.144Z,33.40
2022-08-11T08:06:35.765Z,33.10
2022-08-11T08:09:00.721Z,34.50
2022-08-11T08:11:27.498Z,34.80
2022-08-11T08:13:51.323Z,35.40
2022-08-11T08:16:12.749Z,35.40
2022-08-11T08:18:25.861Z,35.40
2022-08-11T08:22:39.733Z,35.40
2022-08-11T08:24:47.628Z,35.80
2022-08-11T08:31:29.996Z,35.20
2022-08-11T08:33:41.725Z,35.90
2022-08-11T08:35:55.902Z,36.40
2022-08-11T08:42:14.783Z,35.80
2022-08-11T08:44:37.957Z,36.80
2022-08-11T08:46:48.522Z,36.60
2022-08-11T08:53:32.210Z,37.10
2022-08-11T08:57:44.543Z,36.00
2022-08-11T08:59:51.474Z,37.10
2022-08-11T09:10:30.561Z,36.80
2022-08-11T09:12:38.736Z,38.10
2022-08-11T09:19:17.637Z,37.60
2022-08-11T09:21:49.307Z,35.70
2022-08-11T09:24:16.866Z,35.60
2022-08-11T09:26:43.126Z,35.50
2022-08-11T12:09:52.275Z,34.70
2022-08-11T12:14:21.968Z,34.40
2022-08-11T12:16:36.486Z,33.90
2022-08-11T12:23:14.594Z,33.50
2022-08-11T12:25:38.117Z,33.80
2022-08-11T12:27:42.333Z,33.50
2022-08-11T12:29:52.844Z,33.90
2022-08-11T12:32:00.567Z,34.50
2022-08-11T12:34:05.772Z,34.60
2022-08-11T12:36:16.487Z,34.40
2022-08-11T12:38:26.052Z,33.80
2022-08-11T12:43:39.330Z,33.80
2022-08-11T12:45:48.706Z,33.50
2022-08-11T12:48:59.192Z,33.90
2022-08-11T12:50:55.316Z,33.20
2022-08-11T12:52:59.676Z,32.70
2022-08-11T12:55:13.189Z,32.30
2022-08-11T12:57:39.476Z,32.30
2022-08-11T13:02:22.319Z,32.60
2022-08-11T13:04:50.155Z,32.70
2022-08-11T13:09:01.595Z,32.50
2022-08-11T13:11:24.144Z,32.30
2022-08-11T13:13:55.269Z,32.50
2022-08-11T13:15:55.544Z,32.40
2022-08-11T13:18:00.506Z,32.50
2022-08-11T13:20:06.398Z,31.50
2022-08-11T13:22:11.459Z,31.40
2022-08-11T13:24:15.664Z,31.50
2022-08-11T13:26:24.566Z,31.40
2022-08-11T13:28:47.284Z,31.50
2022-08-11T13:31:09.123Z,31.60
2022-08-11T13:33:13.713Z,31.70
2022-08-11T13:38:17.770Z,31.20
2022-08-11T13:39:53.124Z,30.80
2022-08-11T13:41:59.616Z,30.20
2022-08-11T13:44:06.860Z,30.40
2022-08-11T13:46:22.830Z,31.10
2022-08-11T13:48:28.522Z,30.90
2022-08-11T13:50:49.962Z,31.60
2022-08-11T13:52:53.621Z,31.70
2022-08-11T13:54:58.165Z,31.70
2022-08-11T13:57:08.300Z,30.90
2022-08-11T13:59:20.385Z,30.40
2022-08-11T14:02:03.710Z,29.50
2022-08-11T14:04:28.889Z,29.50
2022-08-11T14:06:37.142Z,29.10
2022-08-11T14:08:46.778Z,28.60
2022-08-11T14:12:19.716Z,28.30
2022-08-11T14:13:42.409Z,28.10
2022-08-11T14:15:56.832Z,28.40
2022-08-11T14:18:08.865Z,29.30
2022-08-11T14:20:38.655Z,29.90
2022-08-11T14:22:42.400Z,30.20
2022-08-11T14:24:50.715Z,30.50
2022-08-11T14:26:56.995Z,30.00
2022-08-11T14:29:04.053Z,29.60
2022-08-11T14:31:10.555Z,29.00
2022-08-11T14:33:20.423Z,29.00
2022-08-11T14:35:25.613Z,29.20
2022-08-11T14:37:31.261Z,29.30
2022-08-11T14:39:43.312Z,29.40
2022-08-11T14:42:12.609Z,29.60
2022-08-11T14:44:34.491Z,29.80
2022-08-11T14:47:01.537Z,29.00
2022-08-11T14:49:07.414Z,28.50
2022-08-11T14:51:11.324Z,28.10
2022-08-11T14:53:29.583Z,28.10
2022-08-11T14:55:54.563Z,28.00
2022-08-11T15:00:07.309Z,29.00
2022-08-11T15:02:45.089Z,29.30
2022-08-11T15:04:49.685Z,29.10
2022-08-11T15:06:54.764Z,29.00
2022-08-11T15:08:59.255Z,29.10
2022-08-11T15:11:23.344Z,29.30
2022-08-11T15:13:27.219Z,29.30
2022-08-11T15:15:50.657Z,29.40
2022-08-11T15:17:58.616Z,29.20
2022-08-11T15:20:21.347Z,29.10
2022-08-11T15:22:42.086Z,28.90
2022-08-11T15:24:47.263Z,28.80
2022-08-11T15:27:21.020Z,28.90
2022-08-11T15:29:53.867Z,29.00
2022-08-11T15:32:18.590Z,29.10
2022-08-11T15:34:47.925Z,29.30
2022-08-11T15:37:16.979Z,29.00
2022-08-11T15:39:24.342Z,29.10
2022-08-11T15:41:58.758Z,28.60
2022-08-11T15:44:44.457Z,28.30
2022-08-11T15:46:55.275Z,28.20
2022-08-11T15:49:02.700Z,28.10
2022-08-11T15:51:11.834Z,27.90
2022-08-11T15:55:30.080Z,27.40
2022-08-11T15:57:51.847Z,27.30
2022-08-11T16:00:09.166Z,27.10
2022-08-11T16:02:34.267Z,27.10
2022-08-11T16:06:51.758Z,26.70
2022-08-11T16:08:58.450Z,26.70
2022-08-11T16:11:08.941Z,26.60
2022-08-11T16:15:56.390Z,26.30
2022-08-11T16:18:08.573Z,26.20
2022-08-11T16:20:19.359Z,26.00
2022-08-11T16:22:39.442Z,26.00
2022-08-11T16:26:38.731Z,25.80
2022-08-11T16:27:14.666Z,25.60
2022-08-11T16:29:24.061Z,25.60
2022-08-11T16:31:33.369Z,25.50
2022-08-11T16:33:50.337Z,25.40
2022-08-11T16:36:14.375Z,25.30
2022-08-11T16:38:37.943Z,25.30
2022-08-11T16:40:43.520Z,25.20
2022-08-11T16:43:11.301Z,25.10
2022-08-11T16:45:47.519Z,25.00
2022-08-11T16:48:33.011Z,24.90
2022-08-11T16:50:17.066Z,24.80
2022-08-11T16:52:21.071Z,24.90
2022-08-11T16:54:28.458Z,24.80
2022-08-11T16:56:38.853Z,24.70
2022-08-11T16:59:06.214Z,24.60
2022-08-11T17:01:11.312Z,24.50
2022-08-11T17:03:32.924Z,24.40
2022-08-11T17:06:00.500Z,24.50
2022-08-11T17:08:24.403Z,24.30
2022-08-11T17:10:55.661Z,24.20
2022-08-11T17:13:10.819Z,24.10
2022-08-11T17:15:37.692Z,24.10
2022-08-11T17:17:42.289Z,24.00
2022-08-11T17:20:39.431Z,23.90
2022-08-11T17:22:31.532Z,23.80
2022-08-11T17:24:38.600Z,23.80
2022-08-11T17:26:57.217Z,23.70
2022-08-11T17:29:04.755Z,23.70
2022-08-11T17:31:30.084Z,23.70
2022-08-11T17:33:52.813Z,23.50
2022-08-11T17:35:57.726Z,23.40
2022-08-11T17:38:07.651Z,23.50
2022-08-11T17:40:16.020Z,23.50
2022-08-11T17:45:03.310Z,23.20
2022-08-11T17:47:28.566Z,23.10
2022-08-11T17:49:38.060Z,23.10
2022-08-11T17:52:03.161Z,23.10
2022-08-11T17:54:27.763Z,23.20
2022-08-11T17:59:32.354Z,23.00
2022-08-11T18:01:37.373Z,23.00
2022-08-11T18:03:57.524Z,23.00
2022-08-11T18:06:04.149Z,22.90
2022-08-11T18:08:28.050Z,22.90
2022-08-11T18:10:50.897Z,22.70
2022-08-11T18:13:14.309Z,22.60
2022-08-11T18:15:37.190Z,22.60
2022-08-11T18:18:10.629Z,22.50
2022-08-11T18:20:31.440Z,22.40
2022-08-11T18:23:00.025Z,22.40
2022-08-11T18:25:24.858Z,22.50
2022-08-11T18:27:50.035Z,22.60
2022-08-11T18:30:13.298Z,22.60
2022-08-11T18:32:49.807Z,22.40
2022-08-11T18:35:12.516Z,22.40
2022-08-11T18:37:42.612Z,22.50
2022-08-11T18:40:06.191Z,22.40
2022-08-11T18:42:31.539Z,22.20
2022-08-11T18:47:17.818Z,22.30
2022-08-11T18:50:02.100Z,22.30
2022-08-11T18:52:28.203Z,22.30
2022-08-11T18:57:20.930Z,22.10
2022-08-11T18:59:46.778Z,21.90
2022-08-11T19:02:09.922Z,22.10
2022-08-11T19:04:31.806Z,22.00
2022-08-11T19:07:02.693Z,22.00
2022-08-11T19:09:29.070Z,22.00
2022-08-11T19:11:53.595Z,21.90
2022-08-11T19:14:19.670Z,22.00
2022-08-11T19:16:43.309Z,21.90
2022-08-11T19:19:07.370Z,21.90
2022-08-11T19:21:29.931Z,21.80
2022-08-11T19:23:55.989Z,21.80
2022-08-11T19:26:18.841Z,21.80
2022-08-11T19:28:42.148Z,21.90
2022-08-11T19:31:07.271Z,21.80
2022-08-11T19:34:03.242Z,21.70
2022-08-11T19:36:10.328Z,21.60
2022-08-11T19:38:32.365Z,21.50
2022-08-11T19:40:57.764Z,21.50
2022-08-11T19:43:26.047Z,21.50
2022-08-11T19:45:52.244Z,21.60
2022-08-11T19:48:31.196Z,21.60
2022-08-11T19:50:54.215Z,21.60
2022-08-11T19:53:17.859Z,21.50
2022-08-11T19:55:40.303Z,21.60
2022-08-11T19:58:04.312Z,21.50
2022-08-11T20:00:32.805Z,21.40
2022-08-11T20:02:53.863Z,21.60
2022-08-11T20:05:14.803Z,21.50
2022-08-11T20:07:40.146Z,21.40
2022-08-11T20:10:05.984Z,21.30
2022-08-11T20:12:30.735Z,21.10
2022-08-11T20:14:56.134Z,21.00
2022-08-11T20:17:19.329Z,21.00
2022-08-11T20:19:55.333Z,20.90
2022-08-11T20:22:18.676Z,20.80
2022-08-11T20:24:40.880Z,20.70
2022-08-11T20:27:02.436Z,20.70
2022-08-11T20:29:27.148Z,20.70
2022-08-11T20:31:51.272Z,20.60
2022-08-11T20:34:13.393Z,20.50
2022-08-11T20:36:36.160Z,20.40
2022-08-11T20:38:58.060Z,20.40
2022-08-11T20:41:22.516Z,20.60
2022-08-11T20:44:06.738Z,20.50
2022-08-11T20:46:27.284Z,20.50
2022-08-11T20:48:50.528Z,20.40
2022-08-11T20:51:16.593Z,20.30
2022-08-11T20:59:13.824Z,20.10
2022-08-11T21:01:38.464Z,20.10
2022-08-11T21:04:01.751Z,20.20
2022-08-11T21:06:31.431Z,20.00
2022-08-11T21:08:56.838Z,20.10
2022-08-11T21:16:26.163Z,20.10
2022-08-11T21:18:49.336Z,20.00
2022-08-11T21:21:16.614Z,20.00
2022-08-11T21:23:38.440Z,20.10
2022-08-11T21:26:04.518Z,20.10
2022-08-11T21:30:57.549Z,20.20
2022-08-11T21:33:21.444Z,20.10
2022-08-11T21:35:45.379Z,19.90
2022-08-11T21:38:10.239Z,19.90
2022-08-11T21:40:33.891Z,19.70
2022-08-11T21:42:57.595Z,19.70
2022-08-11T21:45:20.172Z,19.60
2022-08-11T21:47:44.309Z,19.50
2022-08-11T21:50:06.503Z,19.40
2022-08-11T21:52:28.170Z,19.40
2022-08-11T21:54:50.772Z,19.30
2022-08-11T21:57:13.786Z,19.20
2022-08-11T21:59:42.104Z,19.20
2022-08-11T22:02:05.331Z,19.20
2022-08-11T22:04:30.286Z,19.20
2022-08-11T22:06:52.029Z,19.20
2022-08-11T22:09:12.738Z,19.10
2022-08-11T22:14:06.327Z,19.00
2022-08-11T22:16:29.277Z,19.00
2022-08-11T22:18:54.656Z,19.00
2022-08-11T22:23:59.710Z,18.80
2022-08-11T22:26:22.173Z,18.80
2022-08-11T22:28:44.943Z,18.80
2022-08-11T22:31:09.246Z,18.70
2022-08-11T22:33:31.316Z,18.70
2022-08-11T22:35:54.477Z,18.70
2022-08-11T22:45:28.910Z,18.60
2022-08-11T22:47:50.491Z,18.60
2022-08-11T22:50:16.633Z,18.50
2022-08-11T22:52:40.981Z,18.50
2022-08-11T22:55:04.620Z,18.50
2022-08-11T22:57:28.917Z,18.30
2022-08-11T22:59:50.066Z,18.30
2022-08-11T23:02:16.794Z,18.30
2022-08-11T23:04:41.607Z,18.20
2022-08-11T23:07:03.553Z,18.20
2022-08-11T23:09:29.690Z,18.20
2022-08-11T23:12:06.242Z,18.20
2022-08-11T23:14:29.983Z,18.20
2022-08-11T23:16:51.317Z,18.20
2022-08-11T23:21:56.677Z,18.20
2022-08-11T23:24:18.368Z,18.20
2022-08-11T23:26:41.539Z,18.20
2022-08-11T23:29:06.184Z,18.20
2022-08-11T23:31:50.463Z,18.20
2022-08-11T23:35:02.337Z,18.20
2022-08-11T23:37:02.213Z,18.20
2022-08-11T23:41:44.938Z,18.30
2022-08-11T23:44:08.339Z,18.30
2022-08-11T23:46:29.798Z,18.30
2022-08-11T23:48:51.840Z,18.30
2022-08-11T23:51:18.102Z,18.40
2022-08-11T23:53:41.079Z,18.30
2022-08-11T23:56:02.277Z,18.30
2022-08-11T23:58:23.141Z,18.20
